Time;durP1;ratioP1;P1;durP2;ratioP2;P2;SDS_P1;SDS_P2;PMS_P1;PMS_P2;Temp;Humidity;BMP_temperature;BMP_pressure;BME280_temperature;BME280_humidity;BME280_pressure;Samples;Min_cycle;Max_cycle;Signal;HPM_P1;HPM_P2
2022/12/15 00:39:57;;;;;;;;;;;-8.00;99.90;;;;;;5093684;28;20380;-69
2022/12/15 00:42:23;;;;;;;;;;;-8.00;99.90;;;;;;5093866;28;20417;-69
2022/12/15 00:44:50;;;;;;;;;;;-8.00;99.90;;;;;;5075641;28;19997;-69
2022/12/15 00:47:15;;;;;;;;;;;-8.00;99.90;;;;;;5093823;28;19909;-69
2022/12/15 01:20:19;;;;;;;;;;;-7.90;99.90;;;;;;5097407;28;19943;-70
2022/12/15 01:22:47;;;;;;;;;;;-7.90;99.90;;;;;;5081757;28;20438;-61
2022/12/15 01:25:13;;;;;;;;;;;-7.90;99.90;;;;;;5097749;28;19916;-61
2022/12/15 01:27:38;;;;;;;;;;;-7.90;99.90;;;;;;5097458;28;19918;-61
2022/12/15 01:30:04;;;;;;;;;;;-7.90;99.90;;;;;;5097438;28;19915;-60
2022/12/15 01:32:30;;;;;;;;;;;-7.90;99.90;;;;;;5097278;28;19920;-61
2022/12/15 01:34:55;;;;;;;;;;;-7.80;99.90;;;;;;5097617;28;19947;-61
2022/12/15 01:37:21;;;;;;;;;;;-7.80;99.90;;;;;;5097493;28;19920;-61
2022/12/15 01:42:32;;;;;;;;;;;-7.70;99.90;;;;;;5096937;28;19908;-61
2022/12/15 01:45:17;;;;;;;;;;;-7.60;99.90;;;;;;5097143;28;19908;-61
2022/12/15 01:47:42;;;;;;;;;;;-7.60;99.90;;;;;;5097090;28;20007;-61
2022/12/15 01:50:12;;;;;;;;;;;-7.60;99.90;;;;;;5097063;28;19962;-61
2022/12/15 01:52:38;;;;;;;;;;;-7.60;99.90;;;;;;5096836;28;20003;-61
2022/12/15 01:55:04;;;;;;;;;;;-7.60;99.90;;;;;;5078832;28;19955;-61
2022/12/15 01:57:31;;;;;;;;;;;-7.50;99.90;;;;;;5097187;28;19909;-61
2022/12/15 01:59:58;;;;;;;;;;;-7.50;99.90;;;;;;5097080;28;19912;-61
2022/12/15 02:02:25;;;;;;;;;;;-7.40;99.90;;;;;;5096809;28;19908;-62
2022/12/15 02:04:52;;;;;;;;;;;-7.20;99.90;;;;;;5097062;28;20254;-62
2022/12/15 02:07:18;;;;;;;;;;;-7.20;99.90;;;;;;5096731;28;19962;-60
2022/12/15 02:09:45;;;;;;;;;;;-7.00;99.90;;;;;;5096639;28;19908;-60
2022/12/15 02:12:17;;;;;;;;;;;-6.90;99.90;;;;;;5096541;28;20372;-64
2022/12/15 02:14:48;;;;;;;;;;;-6.70;99.90;;;;;;5096635;28;19999;-61
2022/12/15 02:17:39;;;;;;;;;;;-6.50;99.90;;;;;;5096537;28;19908;-61
2022/12/15 02:20:24;;;;;;;;;;;-6.50;99.90;;;;;;5096440;28;19911;-61
2022/12/15 02:23:01;;;;;;;;;;;-6.50;99.90;;;;;;5096324;28;19912;-61
2022/12/15 02:25:46;;;;;;;;;;;-6.40;99.90;;;;;;5077779;28;19999;-61
2022/12/15 02:28:14;;;;;;;;;;;-6.30;99.90;;;;;;5096240;28;19908;-63
2022/12/15 02:30:45;;;;;;;;;;;-6.30;99.90;;;;;;5096245;28;19915;-61
2022/12/15 02:33:16;;;;;;;;;;;-6.20;99.90;;;;;;5078060;28;20037;-62
2022/12/15 02:35:58;;;;;;;;;;;-6.10;99.90;;;;;;5096430;28;20376;-61
2022/12/15 02:38:32;;;;;;;;;;;-6.00;99.90;;;;;;5096353;28;19915;-61
2022/12/15 02:40:59;;;;;;;;;;;-5.90;99.90;;;;;;5096065;28;19959;-61
2022/12/15 02:43:25;;;;;;;;;;;-5.80;99.90;;;;;;5096267;28;20418;-61
2022/12/15 02:45:54;;;;;;;;;;;-5.80;99.90;;;;;;5096222;28;19958;-61
2022/12/15 02:48:27;;;;;;;;;;;-5.80;99.90;;;;;;5095926;28;19915;-61
2022/12/15 02:51:02;;;;;;;;;;;-5.80;99.90;;;;;;5095923;28;19908;-62
2022/12/15 02:56:24;;;;;;;;;;;-6.00;99.90;;;;;;5091413;27;20273;-62
2022/12/15 02:59:09;;;;;;;;;;;-6.10;99.90;;;;;;5091544;28;19912;-61
2022/12/15 03:01:44;;;;;;;;;;;-6.10;99.90;;;;;;5091462;28;20434;-61
2022/12/15 03:04:10;;;;;;;;;;;-6.20;99.90;;;;;;5091426;28;19912;-62
2022/12/15 03:06:36;;;;;;;;;;;-6.20;99.90;;;;;;5091145;28;19954;-61
2022/12/15 03:09:02;;;;;;;;;;;-6.20;99.90;;;;;;5091294;28;20281;-61
2022/12/15 03:11:27;;;;;;;;;;;-6.30;99.90;;;;;;5091038;28;20007;-65
2022/12/15 03:13:53;;;;;;;;;;;-6.30;99.90;;;;;;5091119;28;20341;-67
2022/12/15 03:16:19;;;;;;;;;;;-6.30;99.90;;;;;;5090893;28;20003;-66
2022/12/15 03:18:45;;;;;;;;;;;-6.40;99.90;;;;;;5090943;28;19909;-65
2022/12/15 03:21:10;;;;;;;;;;;-6.40;99.90;;;;;;5091056;28;20258;-65
2022/12/15 03:23:36;;;;;;;;;;;-6.40;99.90;;;;;;5091031;28;19908;-65
2022/12/15 03:26:01;;;;;;;;;;;-6.30;99.90;;;;;;5090690;28;20304;-65
2022/12/15 03:28:27;;;;;;;;;;;-6.40;99.90;;;;;;5090564;28;20285;-65
2022/12/15 03:30:53;;;;;;;;;;;-6.30;99.90;;;;;;5090570;28;20289;-67
2022/12/15 03:33:18;;;;;;;;;;;-6.20;99.90;;;;;;5089212;28;19908;-65
2022/12/15 03:35:43;;;;;;;;;;;-6.10;99.90;;;;;;5090431;28;19912;-65
2022/12/15 03:38:09;;;;;;;;;;;-6.10;99.90;;;;;;5090698;28;19912;-65
2022/12/15 03:40:34;;;;;;;;;;;-5.90;99.90;;;;;;5089166;28;20397;-65
2022/12/15 03:43:00;;;;;;;;;;;-5.70;99.90;;;;;;5090318;28;19908;-65
2022/12/15 03:45:26;;;;;;;;;;;-5.50;99.90;;;;;;5090255;28;19958;-65
2022/12/15 03:47:52;;;;;;;;;;;-5.30;99.90;;;;;;5090515;28;19915;-65
2022/12/15 03:50:20;;;;;;;;;;;-5.20;99.90;;;;;;5090551;28;19944;-69
2022/12/15 03:52:49;;;;;;;;;;;-5.20;99.90;;;;;;5089058;28;19955;-66
2022/12/15 03:55:14;;;;;;;;;;;-5.30;99.90;;;;;;5103037;28;19927;-66
2022/12/15 03:57:41;;;;;;;;;;;-5.20;99.90;;;;;;5110713;28;19908;-62
2022/12/15 04:00:07;;;;;;;;;;;-5.30;99.90;;;;;;5110689;28;19914;-62
2022/12/15 04:02:33;;;;;;;;;;;-5.20;99.90;;;;;;5110637;28;19908;-63
2022/12/15 04:04:58;;;;;;;;;;;-5.20;99.90;;;;;;5110556;28;19908;-63
2022/12/15 04:07:23;;;;;;;;;;;-5.20;99.90;;;;;;5097173;28;19954;-63
2022/12/15 04:09:49;;;;;;;;;;;-5.30;99.90;;;;;;5096649;28;20277;-71
2022/12/15 04:12:14;;;;;;;;;;;-5.50;99.90;;;;;;5078446;28;20030;-72
2022/12/15 04:14:41;;;;;;;;;;;-5.60;99.90;;;;;;5096493;28;19965;-72
2022/12/15 04:17:08;;;;;;;;;;;-5.70;99.90;;;;;;5096507;28;20002;-71
2022/12/15 04:22:19;;;;;;;;;;;-6.00;99.90;;;;;;5096205;28;19943;-71
2022/12/15 05:33:43;;;;;;;;;;;-6.20;99.90;;;;;;5094773;28;19915;-65
2022/12/15 05:36:09;;;;;;;;;;;-6.20;99.90;;;;;;5095210;28;19916;-65
2022/12/15 05:38:34;;;;;;;;;;;-6.20;99.90;;;;;;5094934;28;19908;-65
2022/12/15 05:40:59;;;;;;;;;;;-6.10;99.90;;;;;;5094813;28;19912;-65
2022/12/15 05:43:25;;;;;;;;;;;-6.10;99.90;;;;;;5094855;28;19937;-65
2022/12/15 05:45:51;;;;;;;;;;;-6.10;99.90;;;;;;5095040;28;19909;-65
2022/12/15 05:48:16;;;;;;;;;;;-6.00;99.90;;;;;;5094717;28;19953;-66
2022/12/15 05:50:41;;;;;;;;;;;-6.10;99.90;;;;;;5094946;28;19908;-65
2022/12/15 05:53:07;;;;;;;;;;;-6.00;99.90;;;;;;5094620;28;19915;-65
2022/12/15 05:55:32;;;;;;;;;;;-5.90;99.90;;;;;;5094334;28;19920;-65
2022/12/15 05:57:58;;;;;;;;;;;-5.90;99.90;;;;;;5094818;28;20320;-65
2022/12/15 06:00:23;;;;;;;;;;;-6.10;99.90;;;;;;5094727;28;19908;-65
2022/12/15 06:02:49;;;;;;;;;;;-6.20;99.90;;;;;;5076388;28;19998;-65
2022/12/15 06:05:14;;;;;;;;;;;-6.40;99.90;;;;;;5094632;28;19954;-65
2022/12/15 06:07:40;;;;;;;;;;;-6.50;99.90;;;;;;5094594;28;19987;-65
2022/12/15 06:10:05;;;;;;;;;;;-6.60;99.90;;;;;;5076273;28;19908;-65
2022/12/15 06:12:31;;;;;;;;;;;-6.70;99.90;;;;;;5094601;28;20310;-65
2022/12/15 06:14:56;;;;;;;;;;;-6.80;99.90;;;;;;5094231;28;20440;-65
2022/12/15 06:17:22;;;;;;;;;;;-6.90;99.90;;;;;;5094160;28;19908;-65
2022/12/15 06:19:47;;;;;;;;;;;-6.90;99.90;;;;;;5094151;28;19908;-65
2022/12/15 06:22:13;;;;;;;;;;;-6.90;99.90;;;;;;5094299;28;19908;-66
2022/12/15 06:24:38;;;;;;;;;;;-6.90;99.90;;;;;;5094058;28;20366;-65
2022/12/15 06:27:04;;;;;;;;;;;-6.90;99.90;;;;;;5075894;28;19915;-65
2022/12/15 06:29:29;;;;;;;;;;;-6.90;99.90;;;;;;5094012;28;19912;-65
2022/12/15 06:31:55;;;;;;;;;;;-6.90;99.90;;;;;;5093987;28;20365;-65
2022/12/15 06:34:20;;;;;;;;;;;-7.00;99.90;;;;;;5094200;28;20287;-65
2022/12/15 06:36:46;;;;;;;;;;;-7.00;99.90;;;;;;5094461;28;19962;-66
2022/12/15 06:39:16;;;;;;;;;;;-7.00;99.90;;;;;;5075963;28;20335;-65
2022/12/15 06:41:49;;;;;;;;;;;-7.00;99.90;;;;;;5075769;28;19908;-67
2022/12/15 06:44:17;;;;;;;;;;;-7.00;99.90;;;;;;5094196;28;19939;-66
2022/12/15 06:46:48;;;;;;;;;;;-7.00;99.90;;;;;;5076153;28;19908;-67
2022/12/15 06:49:14;;;;;;;;;;;-7.10;99.90;;;;;;5075709;28;19934;-67
2022/12/15 06:51:40;;;;;;;;;;;-7.00;99.90;;;;;;5093842;28;19916;-67
2022/12/15 06:54:06;;;;;;;;;;;-7.00;99.90;;;;;;5075550;28;19922;-66
2022/12/15 06:56:34;;;;;;;;;;;-7.10;99.90;;;;;;5075804;28;20006;-66
2022/12/15 06:59:02;;;;;;;;;;;-7.10;99.90;;;;;;5094071;28;19912;-66
2022/12/15 07:01:28;;;;;;;;;;;-7.10;99.90;;;;;;5093692;28;19931;-65
2022/12/15 07:03:54;;;;;;;;;;;-7.10;99.90;;;;;;5093970;28;20022;-65
2022/12/15 07:06:19;;;;;;;;;;;-7.10;99.90;;;;;;5093645;28;19981;-66
2022/12/15 07:08:51;;;;;;;;;;;-7.20;99.90;;;;;;5093853;28;19908;-66
2022/12/15 07:11:16;;;;;;;;;;;-7.20;99.90;;;;;;5093567;28;19915;-66
2022/12/15 07:13:42;;;;;;;;;;;-7.20;99.90;;;;;;5093477;28;19908;-66
2022/12/15 07:16:08;;;;;;;;;;;-7.20;99.90;;;;;;5093479;28;19927;-66
2022/12/15 07:18:34;;;;;;;;;;;-7.20;99.90;;;;;;5093470;28;19909;-66
2022/12/15 07:21:01;;;;;;;;;;;-7.20;99.90;;;;;;5093424;28;19934;-66
2022/12/15 07:23:26;;;;;;;;;;;-7.20;99.90;;;;;;5093635;28;20335;-66
2022/12/15 07:25:52;;;;;;;;;;;-7.10;99.90;;;;;;5093674;28;19908;-66
2022/12/15 07:28:17;;;;;;;;;;;-6.90;99.90;;;;;;5093701;28;19912;-66
2022/12/15 07:30:43;;;;;;;;;;;-6.90;99.90;;;;;;5093500;28;20002;-66
2022/12/15 07:33:08;;;;;;;;;;;-6.80;99.90;;;;;;5093661;28;19908;-66
2022/12/15 07:35:33;;;;;;;;;;;-6.80;99.90;;;;;;5093485;28;19919;-66
2022/12/15 07:37:59;;;;;;;;;;;-6.90;99.90;;;;;;5093197;28;20426;-66
2022/12/15 07:40:25;;;;;;;;;;;-6.80;99.90;;;;;;5093595;28;19955;-66
2022/12/15 07:42:50;;;;;;;;;;;-6.80;99.90;;;;;;5078834;28;19938;-65
2022/12/15 07:45:16;;;;;;;;;;;-6.80;99.90;;;;;;5097178;28;20000;-65
2022/12/15 07:47:41;;;;;;;;;;;-6.70;99.90;;;;;;5097421;28;19915;-65
2022/12/15 07:50:07;;;;;;;;;;;-6.70;99.90;;;;;;5097232;28;19915;-66
2022/12/15 07:52:33;;;;;;;;;;;-6.60;99.90;;;;;;5078781;28;19912;-66
2022/12/15 07:54:59;;;;;;;;;;;-6.50;99.90;;;;;;5096714;28;20342;-66
2022/12/15 07:57:24;;;;;;;;;;;-6.40;99.90;;;;;;5096824;28;19915;-64
2022/12/15 07:59:50;;;;;;;;;;;-6.10;99.90;;;;;;5078692;28;19963;-64
2022/12/15 08:02:15;;;;;;;;;;;-5.60;99.90;;;;;;5096744;28;19915;-65
2022/12/15 08:04:43;;;;;;;;;;;-5.10;99.90;;;;;;5096850;28;19943;-65
2022/12/15 08:07:09;;;;;;;;;;;-4.30;99.90;;;;;;5096478;28;19908;-65
2022/12/15 08:09:35;;;;;;;;;;;-3.50;99.90;;;;;;5096817;28;19908;-65
2022/12/15 08:12:01;;;;;;;;;;;-3.20;99.90;;;;;;5096816;28;19908;-65
2022/12/15 08:14:28;;;;;;;;;;;-2.60;99.90;;;;;;5096703;28;19926;-64
2022/12/15 08:16:53;;;;;;;;;;;-2.20;99.90;;;;;;5095676;28;19920;-65
2022/12/15 08:19:19;;;;;;;;;;;-1.40;99.90;;;;;;5091168;28;20365;-65
2022/12/15 08:21:44;;;;;;;;;;;-1.20;99.90;;;;;;5084854;28;20366;-65
2022/12/15 08:24:10;;;;;;;;;;;-0.80;99.90;;;;;;5076033;28;19919;-65
2022/12/15 08:26:36;;;;;;;;;;;-0.90;99.90;;;;;;5079086;28;19913;-66
2022/12/15 08:29:03;;;;;;;;;;;-0.80;99.90;;;;;;5083996;28;19913;-65
2022/12/15 08:31:31;;;;;;;;;;;-0.80;99.90;;;;;;5076776;28;19913;-65
2022/12/15 08:33:57;;;;;;;;;;;-1.60;99.90;;;;;;5063417;28;19916;-65
2022/12/15 08:36:22;;;;;;;;;;;-2.20;99.90;;;;;;5085417;28;19920;-65
2022/12/15 08:38:48;;;;;;;;;;;-2.40;99.90;;;;;;5095367;28;19991;-65
2022/12/15 08:41:16;;;;;;;;;;;-2.40;99.90;;;;;;5094245;28;19912;-65
2022/12/15 08:43:41;;;;;;;;;;;-2.30;99.90;;;;;;5093564;28;20001;-65
2022/12/15 08:46:07;;;;;;;;;;;-2.10;99.90;;;;;;5096133;28;19912;-65
2022/12/15 08:48:34;;;;;;;;;;;-1.60;99.90;;;;;;5094054;28;20807;-64
2022/12/15 08:51:00;;;;;;;;;;;-1.40;99.90;;;;;;5096175;28;20353;-64
2022/12/15 08:53:25;;;;;;;;;;;-1.20;99.90;;;;;;5094679;28;19957;-65
2022/12/15 08:55:51;;;;;;;;;;;-0.90;99.90;;;;;;5095292;28;19955;-65
2022/12/15 08:58:16;;;;;;;;;;;-0.60;99.90;;;;;;5095866;28;20373;-65
2022/12/15 09:00:42;;;;;;;;;;;-0.50;99.90;;;;;;5087595;28;19919;-65
2022/12/15 09:03:07;;;;;;;;;;;-0.30;99.90;;;;;;5075603;28;19913;-64
2022/12/15 09:05:34;;;;;;;;;;;-0.20;99.90;;;;;;5057805;28;19908;-65
2022/12/15 09:07:59;;;;;;;;;;;0.00;99.90;;;;;;5092951;28;20003;-65
2022/12/15 09:10:25;;;;;;;;;;;0.40;99.90;;;;;;5095432;28;19940;-65
2022/12/15 09:12:50;;;;;;;;;;;0.50;99.90;;;;;;5094496;28;19919;-65
2022/12/15 09:15:16;;;;;;;;;;;0.80;99.90;;;;;;5080319;28;20373;-66
2022/12/15 09:17:42;;;;;;;;;;;0.60;99.90;;;;;;5074555;28;19912;-66
2022/12/15 09:20:08;;;;;;;;;;;0.60;99.90;;;;;;5095267;28;19915;-66
2022/12/15 09:22:35;;;;;;;;;;;0.80;99.90;;;;;;5095305;28;19912;-66
2022/12/15 09:25:01;;;;;;;;;;;0.80;99.90;;;;;;5095368;28;19915;-66
2022/12/15 09:27:28;;;;;;;;;;;0.70;99.90;;;;;;5095026;28;20361;-66
2022/12/15 09:29:53;;;;;;;;;;;0.50;99.90;;;;;;5060423;28;19939;-65
2022/12/15 09:32:19;;;;;;;;;;;0.40;99.90;;;;;;5092790;28;19950;-66
2022/12/15 09:34:44;;;;;;;;;;;0.70;99.90;;;;;;5089447;28;20369;-66
2022/12/15 09:37:10;;;;;;;;;;;1.10;99.90;;;;;;5093275;28;19920;-66
2022/12/15 09:39:36;;;;;;;;;;;0.90;99.90;;;;;;5094604;28;19908;-66
2022/12/15 09:42:02;;;;;;;;;;;1.20;99.90;;;;;;5094888;28;19908;-66
2022/12/15 09:44:28;;;;;;;;;;;1.20;99.90;;;;;;5085180;28;20015;-66
2022/12/15 09:47:14;;;;;;;;;;;1.60;99.90;;;;;;5077821;28;20370;-66
2022/12/15 09:49:55;;;;;;;;;;;1.80;99.90;;;;;;5091898;28;19940;-66
2022/12/15 09:52:24;;;;;;;;;;;1.70;99.90;;;;;;5094289;28;20249;-65
2022/12/15 09:54:49;;;;;;;;;;;1.70;99.90;;;;;;5091839;28;19925;-66
2022/12/15 09:57:19;;;;;;;;;;;1.80;99.90;;;;;;5091407;28;19919;-66
2022/12/15 10:05:29;;;;;;;;;;;2.40;99.90;;;;;;5085902;28;19920;-65
2022/12/15 10:07:57;;;;;;;;;;;2.10;99.90;;;;;;5088456;28;19913;-65
2022/12/15 10:10:27;;;;;;;;;;;2.20;99.90;;;;;;5087471;28;19913;-65
2022/12/15 10:12:54;;;;;;;;;;;2.20;99.90;;;;;;5091010;28;19915;-66
2022/12/15 10:15:24;;;;;;;;;;;2.10;99.90;;;;;;5088633;28;19912;-66
2022/12/15 10:18:01;;;;;;;;;;;2.10;99.90;;;;;;5090507;28;19909;-66
2022/12/15 10:20:28;;;;;;;;;;;2.50;99.90;;;;;;5088907;28;19908;-66
2022/12/15 10:22:55;;;;;;;;;;;2.60;99.90;;;;;;5091013;28;19999;-66
2022/12/15 10:25:22;;;;;;;;;;;2.50;99.90;;;;;;5089535;28;20369;-66
2022/12/15 10:27:56;;;;;;;;;;;2.20;99.90;;;;;;5090194;28;19915;-66
2022/12/15 10:30:21;;;;;;;;;;;2.20;99.90;;;;;;5078709;28;19912;-66
2022/12/15 10:32:59;;;;;;;;;;;2.10;99.90;;;;;;5070355;28;20427;-66
2022/12/15 10:35:27;;;;;;;;;;;1.90;99.90;;;;;;5070521;28;19915;-66
2022/12/15 10:37:56;;;;;;;;;;;2.40;99.90;;;;;;5070517;28;19948;-66
2022/12/15 10:40:42;;;;;;;;;;;3.00;99.90;;;;;;5070377;28;20314;-66
2022/12/15 10:43:27;;;;;;;;;;;2.50;99.90;;;;;;5070128;28;20288;-66
2022/12/15 10:46:12;;;;;;;;;;;2.10;99.90;;;;;;5079341;28;19966;-66
2022/12/15 10:48:38;;;;;;;;;;;2.10;99.90;;;;;;5090531;28;19940;-66
2022/12/15 10:51:20;;;;;;;;;;;2.30;99.90;;;;;;5087683;28;20323;-66
2022/12/15 10:53:48;;;;;;;;;;;2.40;99.90;;;;;;5087764;28;19913;-66
2022/12/15 10:56:18;;;;;;;;;;;2.20;99.90;;;;;;5090622;28;19908;-67
2022/12/15 10:58:45;;;;;;;;;;;2.50;99.90;;;;;;5100046;28;19920;-66
2022/12/15 11:01:16;;;;;;;;;;;2.40;99.90;;;;;;5070147;28;19909;-66
2022/12/15 11:03:41;;;;;;;;;;;2.60;99.90;;;;;;5096839;28;20320;-65
2022/12/15 11:06:12;;;;;;;;;;;2.50;99.90;;;;;;5107583;28;19919;-66
2022/12/15 11:08:40;;;;;;;;;;;2.50;99.90;;;;;;5110231;28;19912;-66
2022/12/15 11:14:11;;;;;;;;;;;2.20;99.90;;;;;;5106500;28;20399;-66
2022/12/15 11:16:46;;;;;;;;;;;2.20;99.90;;;;;;5093689;28;19912;-66
2022/12/15 11:19:15;;;;;;;;;;;2.10;99.90;;;;;;5094486;28;19919;-67
2022/12/15 11:21:43;;;;;;;;;;;2.20;99.90;;;;;;5082986;28;19969;-66
2022/12/15 11:24:14;;;;;;;;;;;2.10;99.90;;;;;;5076103;28;19916;-66
2022/12/15 11:26:56;;;;;;;;;;;2.00;99.90;;;;;;5076425;28;19909;-66
2022/12/15 11:29:24;;;;;;;;;;;2.00;99.90;;;;;;5086566;28;19920;-66
2022/12/15 11:31:50;;;;;;;;;;;1.90;99.90;;;;;;5070940;28;19920;-66
2022/12/15 11:34:18;;;;;;;;;;;1.60;99.90;;;;;;5068536;28;19913;-66
2022/12/15 11:37:04;;;;;;;;;;;1.30;99.90;;;;;;5076194;28;19908;-68
2022/12/15 11:39:49;;;;;;;;;;;1.20;99.90;;;;;;5075713;28;19947;-67
2022/12/15 11:42:34;;;;;;;;;;;1.50;99.90;;;;;;5070736;28;20025;-67
2022/12/15 11:45:03;;;;;;;;;;;1.60;99.90;;;;;;5089760;28;19966;-66
2022/12/15 11:47:35;;;;;;;;;;;1.50;99.90;;;;;;5095809;28;19912;-66
2022/12/15 11:50:04;;;;;;;;;;;1.70;99.90;;;;;;5074422;28;20379;-66
2022/12/15 11:52:49;;;;;;;;;;;1.50;99.90;;;;;;5092094;28;19999;-66
2022/12/15 11:55:19;;;;;;;;;;;1.60;99.90;;;;;;5090164;28;20035;-66
2022/12/15 11:57:52;;;;;;;;;;;1.60;99.90;;;;;;5110844;28;20285;-66
2022/12/15 12:00:18;;;;;;;;;;;1.70;99.90;;;;;;5093789;28;19912;-66
2022/12/15 12:05:31;;;;;;;;;;;1.50;99.90;;;;;;5054615;28;19917;-67
2022/12/15 12:08:06;;;;;;;;;;;1.40;99.90;;;;;;5062398;28;19913;-66
2022/12/15 12:10:42;;;;;;;;;;;1.60;99.90;;;;;;5068873;28;19938;-66
2022/12/15 12:13:10;;;;;;;;;;;1.70;99.90;;;;;;5070823;28;19915;-66
2022/12/15 12:15:44;;;;;;;;;;;1.80;99.90;;;;;;5069059;28;20004;-65
2022/12/15 12:18:12;;;;;;;;;;;1.80;99.90;;;;;;5070824;28;20370;-67
2022/12/15 12:20:42;;;;;;;;;;;1.80;99.90;;;;;;5069723;28;20320;-67
2022/12/15 12:23:14;;;;;;;;;;;1.80;99.90;;;;;;5070857;28;19915;-65
2022/12/15 12:25:47;;;;;;;;;;;1.80;99.90;;;;;;5066802;28;19920;-65
2022/12/15 12:28:15;;;;;;;;;;;1.80;99.90;;;;;;5070867;28;19963;-66
2022/12/15 12:30:43;;;;;;;;;;;1.90;99.90;;;;;;5069611;28;19920;-66
2022/12/15 12:33:28;;;;;;;;;;;2.10;99.90;;;;;;5070795;28;19909;-66
2022/12/15 12:36:01;;;;;;;;;;;2.00;99.90;;;;;;5068181;28;19916;-66
2022/12/15 12:38:29;;;;;;;;;;;1.90;99.90;;;;;;5068372;28;19912;-66
2022/12/15 12:41:05;;;;;;;;;;;1.70;99.90;;;;;;5064395;28;19913;-69
2022/12/15 12:43:32;;;;;;;;;;;1.80;99.90;;;;;;5052103;28;20415;-66
2022/12/15 12:46:00;;;;;;;;;;;1.90;99.90;;;;;;5062756;28;19920;-66
2022/12/15 12:48:30;;;;;;;;;;;1.80;99.90;;;;;;5069948;28;20009;-67
2022/12/15 12:51:09;;;;;;;;;;;1.70;99.90;;;;;;5068263;28;19919;-67
2022/12/15 12:53:34;;;;;;;;;;;1.70;99.90;;;;;;5069545;28;19913;-66
2022/12/15 12:56:00;;;;;;;;;;;1.70;99.90;;;;;;5066756;28;19913;-66
2022/12/15 12:58:36;;;;;;;;;;;1.70;99.90;;;;;;5054014;28;19919;-67
2022/12/15 13:01:11;;;;;;;;;;;1.70;99.90;;;;;;5068494;28;19916;-66
2022/12/15 13:03:38;;;;;;;;;;;1.70;99.90;;;;;;5056488;28;19927;-66
2022/12/15 13:06:18;;;;;;;;;;;1.70;99.90;;;;;;5088025;28;19912;-66
2022/12/15 13:08:47;;;;;;;;;;;1.70;99.90;;;;;;5079487;28;20003;-66
2022/12/15 13:11:32;;;;;;;;;;;1.70;99.90;;;;;;5088536;28;20247;-67
2022/12/15 13:13:58;;;;;;;;;;;1.70;99.90;;;;;;5080772;28;20370;-66
2022/12/15 13:16:36;;;;;;;;;;;1.70;99.90;;;;;;5057979;28;20026;-66
2022/12/15 13:19:05;;;;;;;;;;;1.80;99.90;;;;;;5067238;28;19967;-66
2022/12/15 13:21:50;;;;;;;;;;;1.60;99.90;;;;;;5066885;28;19916;-66
2022/12/15 13:24:36;;;;;;;;;;;1.60;99.90;;;;;;5056174;28;20000;-66
2022/12/15 13:27:14;;;;;;;;;;;1.60;99.90;;;;;;5071261;28;19912;-66
2022/12/15 13:29:59;;;;;;;;;;;1.50;99.90;;;;;;5074802;28;19919;-66
2022/12/15 13:32:27;;;;;;;;;;;1.50;99.90;;;;;;5073588;28;20361;-65
2022/12/15 13:34:53;;;;;;;;;;;1.50;99.90;;;;;;5075955;28;19908;-65
2022/12/15 13:37:38;;;;;;;;;;;1.50;99.90;;;;;;5074020;28;20404;-66
2022/12/15 13:40:23;;;;;;;;;;;1.50;99.90;;;;;;5073690;28;19917;-66
2022/12/15 13:45:45;;;;;;;;;;;1.40;99.90;;;;;;5070438;28;19913;-66
2022/12/15 13:48:30;;;;;;;;;;;1.40;99.90;;;;;;5063272;28;19913;-66
2022/12/15 13:51:02;;;;;;;;;;;1.50;99.90;;;;;;5042565;28;19913;-66
2022/12/15 13:53:30;;;;;;;;;;;1.50;99.90;;;;;;5038423;28;19959;-65
2022/12/15 13:56:02;;;;;;;;;;;1.40;99.90;;;;;;5030556;28;19920;-66
2022/12/15 13:58:30;;;;;;;;;;;1.40;99.90;;;;;;5046357;28;20016;-65
2022/12/15 14:00:57;;;;;;;;;;;1.40;99.90;;;;;;5050112;28;19917;-66
2022/12/15 14:03:22;;;;;;;;;;;1.40;99.90;;;;;;5031218;28;20015;-66
2022/12/15 14:05:49;;;;;;;;;;;1.40;99.90;;;;;;5042450;28;20356;-66
2022/12/15 14:08:15;;;;;;;;;;;1.30;99.90;;;;;;5045601;28;19919;-67
2022/12/15 14:10:43;;;;;;;;;;;1.30;99.90;;;;;;5050274;28;20371;-66
2022/12/15 14:13:11;;;;;;;;;;;1.20;99.90;;;;;;5046928;28;19921;-66
2022/12/15 14:15:39;;;;;;;;;;;1.20;99.90;;;;;;5051910;28;19992;-66
2022/12/15 14:18:05;;;;;;;;;;;1.10;99.90;;;;;;5045868;28;19921;-66
2022/12/15 14:20:37;;;;;;;;;;;1.10;99.90;;;;;;5049590;28;20270;-66
2022/12/15 14:23:16;;;;;;;;;;;1.10;99.90;;;;;;5045900;28;20337;-66
2022/12/15 14:25:50;;;;;;;;;;;1.00;99.90;;;;;;5047708;28;20286;-66
2022/12/15 14:28:24;;;;;;;;;;;1.00;99.90;;;;;;5048859;28;19940;-66
2022/12/15 14:30:50;;;;;;;;;;;0.90;99.90;;;;;;5048324;28;19964;-66
2022/12/15 14:33:17;;;;;;;;;;;0.80;99.90;;;;;;5049354;28;20400;-66
2022/12/15 14:35:44;;;;;;;;;;;0.80;99.90;;;;;;5048408;28;19963;-66
2022/12/15 14:38:12;;;;;;;;;;;0.70;99.90;;;;;;5048424;28;19913;-65
2022/12/15 14:40:39;;;;;;;;;;;0.60;99.90;;;;;;5046606;28;19914;-66
2022/12/15 14:43:06;;;;;;;;;;;0.50;99.90;;;;;;5049393;28;19945;-67
2022/12/15 14:45:31;;;;;;;;;;;0.40;99.90;;;;;;5066623;28;19972;-66
2022/12/15 14:47:58;;;;;;;;;;;0.30;99.90;;;;;;5068519;28;20010;-67
2022/12/15 14:50:24;;;;;;;;;;;0.20;99.90;;;;;;5068310;28;19939;-66
2022/12/15 14:53:00;;;;;;;;;;;0.10;99.90;;;;;;5066926;28;19913;-66
2022/12/15 14:55:31;;;;;;;;;;;0.00;99.90;;;;;;5049172;28;19919;-66
2022/12/15 14:57:56;;;;;;;;;;;-0.20;99.90;;;;;;5053486;28;19913;-66
2022/12/15 15:00:23;;;;;;;;;;;-0.30;99.90;;;;;;5045424;28;19923;-66
2022/12/15 15:02:49;;;;;;;;;;;-0.40;99.90;;;;;;5051340;28;21202;-66
2022/12/15 15:05:31;;;;;;;;;;;-0.50;99.90;;;;;;5056227;28;19970;-66
2022/12/15 15:07:56;;;;;;;;;;;-0.60;99.90;;;;;;5063102;28;19981;-66
2022/12/15 15:10:26;;;;;;;;;;;-0.70;99.90;;;;;;5043404;28;19945;-66
2022/12/15 15:12:52;;;;;;;;;;;-0.80;99.90;;;;;;5037155;28;20366;-69
2022/12/15 15:15:19;;;;;;;;;;;-0.90;99.90;;;;;;5048652;28;19919;-66
2022/12/15 15:17:54;;;;;;;;;;;-1.00;99.90;;;;;;5054555;28;19920;-67
2022/12/15 15:20:25;;;;;;;;;;;-1.20;99.90;;;;;;5055615;28;19908;-67
2022/12/15 15:26:03;;;;;;;;;;;-1.50;99.90;;;;;;5051674;28;19917;-66
2022/12/15 15:28:38;;;;;;;;;;;-1.50;99.90;;;;;;5049515;28;19921;-66
2022/12/15 15:31:23;;;;;;;;;;;-1.60;99.90;;;;;;5050649;28;19963;-66
2022/12/15 15:33:49;;;;;;;;;;;-1.70;99.90;;;;;;5050401;28;19920;-67
2022/12/15 15:36:15;;;;;;;;;;;-1.80;99.90;;;;;;5054570;28;19999;-67
2022/12/15 15:38:41;;;;;;;;;;;-1.90;99.90;;;;;;5051353;28;19913;-66
2022/12/15 15:41:14;;;;;;;;;;;-2.00;99.90;;;;;;5049069;28;19975;-65
2022/12/15 15:43:40;;;;;;;;;;;-2.00;99.90;;;;;;5045289;28;19921;-66
2022/12/15 15:46:08;;;;;;;;;;;-2.10;99.90;;;;;;5050180;28;20412;-66
2022/12/15 15:48:36;;;;;;;;;;;-2.20;99.90;;;;;;5048138;28;19913;-65
2022/12/15 15:51:02;;;;;;;;;;;-2.30;99.90;;;;;;5049378;28;19920;-65
2022/12/15 15:53:29;;;;;;;;;;;-2.30;99.90;;;;;;5049173;28;19920;-65
2022/12/15 15:55:55;;;;;;;;;;;-2.40;99.90;;;;;;5047558;28;19970;-65
2022/12/15 15:58:20;;;;;;;;;;;-2.40;99.90;;;;;;5049646;28;19913;-66
2022/12/15 16:00:46;;;;;;;;;;;-2.50;99.90;;;;;;5038408;28;19939;-65
2022/12/15 16:03:11;;;;;;;;;;;-2.60;99.90;;;;;;5044139;28;19913;-66
2022/12/15 16:05:37;;;;;;;;;;;-2.60;99.90;;;;;;5049835;28;19920;-66
2022/12/15 16:08:03;;;;;;;;;;;-2.60;99.90;;;;;;5049628;28;19944;-66
2022/12/15 16:10:29;;;;;;;;;;;-2.70;99.90;;;;;;5049613;28;19982;-67
2022/12/15 16:12:56;;;;;;;;;;;-2.70;99.90;;;;;;5049587;28;19949;-65
2022/12/15 16:15:24;;;;;;;;;;;-2.80;99.90;;;;;;5049870;28;19944;-65
2022/12/15 16:17:50;;;;;;;;;;;-2.90;99.90;;;;;;5048696;28;19909;-65
2022/12/15 16:20:16;;;;;;;;;;;-3.00;99.90;;;;;;5049262;28;19913;-65
2022/12/15 16:22:44;;;;;;;;;;;-3.10;99.90;;;;;;5049889;28;19916;-65
2022/12/15 16:25:14;;;;;;;;;;;-3.10;99.90;;;;;;5064399;28;19916;-65
2022/12/15 16:27:40;;;;;;;;;;;-3.20;99.90;;;;;;5069983;28;20007;-66
2022/12/15 16:30:13;;;;;;;;;;;-3.30;99.90;;;;;;5044571;28;20345;-65
2022/12/15 16:32:39;;;;;;;;;;;-3.40;99.90;;;;;;5049463;28;19920;-65
2022/12/15 16:35:04;;;;;;;;;;;-3.40;99.90;;;;;;5053892;28;19916;-65
2022/12/15 16:37:30;;;;;;;;;;;-3.40;99.90;;;;;;5056413;28;19913;-65
2022/12/15 16:39:55;;;;;;;;;;;-3.40;99.90;;;;;;5054968;28;19909;-65
2022/12/15 16:42:21;;;;;;;;;;;-3.40;99.90;;;;;;5053396;28;19920;-66
2022/12/15 16:44:46;;;;;;;;;;;-3.50;99.90;;;;;;5054888;28;19960;-65
2022/12/15 16:47:12;;;;;;;;;;;-3.60;99.90;;;;;;5056110;28;19913;-65
2022/12/15 16:49:38;;;;;;;;;;;-3.70;99.90;;;;;;5056028;28;19995;-65
2022/12/15 16:52:03;;;;;;;;;;;-3.70;99.90;;;;;;5056306;28;19963;-65
2022/12/15 16:54:30;;;;;;;;;;;-3.70;99.90;;;;;;5056062;28;19909;-65
2022/12/15 16:56:56;;;;;;;;;;;-3.70;99.90;;;;;;5038160;28;19913;-65
2022/12/15 16:59:22;;;;;;;;;;;-3.80;99.90;;;;;;5056019;28;19912;-67
2022/12/15 17:01:48;;;;;;;;;;;-3.80;99.90;;;;;;5055864;28;19909;-67
2022/12/15 17:04:15;;;;;;;;;;;-3.80;99.90;;;;;;5056058;28;19932;-66
2022/12/15 17:06:40;;;;;;;;;;;-3.80;99.90;;;;;;5056146;28;19958;-66
2022/12/15 17:09:08;;;;;;;;;;;-3.80;99.90;;;;;;5055797;28;20308;-65
2022/12/15 17:11:33;;;;;;;;;;;-3.90;99.90;;;;;;5055713;28;19908;-67
2022/12/15 17:13:59;;;;;;;;;;;-4.00;99.90;;;;;;5055727;28;19909;-66